Ulco, South Africa
Current Conditions -  °F | °C
As of 6:00 AM on Thursday 18 Dec 2014 (Local Time) from FAKM Reporting Station
Clear Clear  
Wind Chill: 64°   Ceiling: Unl
Heat Index: 64°   Visibility: 6mi
Dew Point: 54°   Wind: 5mph
Humidity: 68%   Direction: 20°NNE
Pressure: 30.03"   Gusts: NA
Location:  28.33°S, 24.21°E
Report Text: FAKM 180400Z 02004KT CAVOK 18/12 Q1017
Loading
Personal Weather Stations






























Interactive Weather Map New forecast layout! Learn more

10-Day Weather Forecast

Advertisements
Track Severe Weather on mobile